createdAt,value
2019-03-21T00:01:56.310Z,100715.48
2019-03-21T00:04:27.188Z,100710.33
2019-03-21T00:06:57.973Z,100718.86
2019-03-21T00:09:28.809Z,100715.83
2019-03-21T00:12:04.069Z,100710.63
2019-03-21T00:14:53.935Z,100703.47
2019-03-21T00:17:27.903Z,100704.71
2019-03-21T00:19:58.867Z,100710.46
2019-03-21T00:22:29.610Z,100702.66
2019-03-21T00:25:00.386Z,100698.11
2019-03-21T00:27:31.388Z,100700.17
2019-03-21T00:30:02.241Z,100705.89
2019-03-21T00:32:33.367Z,100703.89
2019-03-21T00:35:04.180Z,100697.88
2019-03-21T00:37:34.916Z,100687.91
2019-03-21T00:40:06.685Z,100690.55
2019-03-21T00:42:38.121Z,100684.25
2019-03-21T00:45:10.157Z,100687.28
2019-03-21T00:47:41.920Z,100676.71
2019-03-21T00:50:14.661Z,100674.05
2019-03-21T00:52:48.072Z,100673.45
2019-03-21T00:55:18.880Z,100657.97
2019-03-21T00:57:49.860Z,100653.66
2019-03-21T01:00:27.195Z,100647.79
2019-03-21T01:02:58.067Z,100647.70
2019-03-21T01:05:30.217Z,100649.38
2019-03-21T01:08:01.194Z,100655.17
2019-03-21T01:10:32.168Z,100645.35
2019-03-21T01:13:03.181Z,100643.66
2019-03-21T01:15:36.005Z,100636.97
2019-03-21T01:18:06.851Z,100639.23
2019-03-21T01:20:37.644Z,100632.50
2019-03-21T01:23:08.418Z,100639.17
2019-03-21T01:25:42.512Z,100642.84
2019-03-21T01:28:14.541Z,100637.20
2019-03-21T01:30:45.426Z,100641.44
2019-03-21T01:33:16.227Z,100640.13
2019-03-21T01:35:47.026Z,100630.94
2019-03-21T01:38:17.834Z,100636.16
2019-03-21T01:40:49.451Z,100636.64
2019-03-21T01:43:20.722Z,100633.66
2019-03-21T01:45:51.587Z,100633.91
2019-03-21T01:48:22.453Z,100633.89
2019-03-21T01:50:53.282Z,100635.16
2019-03-21T01:53:24.050Z,100631.88
2019-03-21T01:55:54.829Z,100625.77
2019-03-21T01:58:25.929Z,100624.02
2019-03-21T02:00:56.779Z,100625.50
2019-03-21T02:03:27.598Z,100621.27
2019-03-21T02:05:58.381Z,100616.19
2019-03-21T02:08:29.157Z,100617.77
2019-03-21T02:10:59.969Z,100604.64
2019-03-21T02:13:31.880Z,100605.16
2019-03-21T02:16:03.108Z,100611.44
2019-03-21T02:18:33.918Z,100615.34
2019-03-21T02:21:04.773Z,100612.36
2019-03-21T02:23:35.698Z,100616.63
2019-03-21T02:26:06.503Z,100616.48
2019-03-21T02:28:37.538Z,100621.41
2019-03-21T02:31:08.478Z,100623.91
2019-03-21T02:33:39.426Z,100626.08
2019-03-21T02:36:10.228Z,100627.23
2019-03-21T02:38:41.024Z,100631.56
2019-03-21T02:41:12.082Z,100631.64
2019-03-21T02:43:43.582Z,100625.70
2019-03-21T02:46:14.966Z,100635.88
2019-03-21T02:48:45.769Z,100633.09
2019-03-21T02:51:16.617Z,100629.77
2019-03-21T02:53:47.474Z,100632.69
2019-03-21T02:56:19.750Z,100632.52
2019-03-21T02:58:50.674Z,100633.73
2019-03-21T03:01:21.915Z,100633.26
2019-03-21T03:03:52.844Z,100636.11
2019-03-21T03:06:23.659Z,100636.71
2019-03-21T03:08:54.572Z,100635.09
2019-03-21T03:11:25.468Z,100633.77
2019-03-21T03:13:57.289Z,100640.14
2019-03-21T03:16:28.120Z,100638.31
2019-03-21T03:18:59.972Z,100639.42
2019-03-21T03:21:30.840Z,100639.75
2019-03-21T03:24:01.675Z,100639.69
2019-03-21T03:26:32.438Z,100646.13
2019-03-21T03:29:03.457Z,100643.99
2019-03-21T03:31:36.986Z,100646.20
2019-03-21T03:34:07.893Z,100646.63
2019-03-21T03:36:38.690Z,100647.37
2019-03-21T03:39:09.852Z,100648.36
2019-03-21T03:41:40.710Z,100646.98
2019-03-21T03:44:11.830Z,100650.87
2019-03-21T03:46:42.567Z,100649.03
2019-03-21T03:49:13.564Z,100650.47
2019-03-21T03:51:44.620Z,100647.06
2019-03-21T03:54:15.623Z,100650.27
2019-03-21T03:56:48.042Z,100647.57
2019-03-21T03:59:19.046Z,100653.34
2019-03-21T04:01:49.784Z,100649.70
2019-03-21T04:04:20.685Z,100656.30
2019-03-21T04:06:51.509Z,100651.75
2019-03-21T04:09:22.385Z,100649.70
2019-03-21T04:11:53.526Z,100653.08
2019-03-21T04:14:24.370Z,100650.05
2019-03-21T04:16:55.110Z,100645.73
2019-03-21T04:19:25.915Z,100641.19
2019-03-21T04:21:58.710Z,100640.75
2019-03-21T04:24:30.677Z,100643.67
2019-03-21T04:27:01.443Z,100641.84
2019-03-21T04:29:32.628Z,100648.49
2019-03-21T04:32:07.531Z,100652.70
2019-03-21T04:34:39.151Z,100653.20
2019-03-21T04:37:09.955Z,100650.21
2019-03-21T04:39:40.952Z,100650.86
2019-03-21T04:42:11.838Z,100646.23
2019-03-21T04:44:44.446Z,100643.02
2019-03-21T04:47:15.431Z,100648.38
2019-03-21T04:49:46.188Z,100641.20
2019-03-21T04:52:17.049Z,100649.12
2019-03-21T04:54:47.796Z,100646.47
2019-03-21T04:57:18.641Z,100645.42
2019-03-21T04:59:49.560Z,100656.64
2019-03-21T05:02:20.442Z,100656.64
2019-03-21T05:04:51.414Z,100655.33
2019-03-21T05:07:22.238Z,100651.76
2019-03-21T05:09:53.088Z,100657.62
2019-03-21T05:12:23.882Z,100654.39
2019-03-21T05:14:54.702Z,100651.44
2019-03-21T05:17:25.437Z,100662.00
2019-03-21T05:19:56.244Z,100663.98
2019-03-21T05:22:29.751Z,100673.25
2019-03-21T05:25:00.496Z,100668.61
2019-03-21T05:27:31.231Z,100671.91
2019-03-21T05:30:02.236Z,100668.61
2019-03-21T05:32:33.013Z,100668.40
2019-03-21T05:35:03.917Z,100676.12
2019-03-21T05:37:35.119Z,100693.62
2019-03-21T05:40:07.512Z,100694.70
2019-03-21T05:42:38.395Z,100694.59
2019-03-21T05:45:11.031Z,100690.70
2019-03-21T05:47:41.809Z,100699.44
2019-03-21T05:50:15.061Z,100705.03
2019-03-21T05:52:46.115Z,100705.45
2019-03-21T05:55:16.878Z,100697.98
2019-03-21T05:57:47.674Z,100700.23
2019-03-21T06:00:25.127Z,100694.25
2019-03-21T06:02:56.094Z,100698.22
2019-03-21T06:05:26.961Z,100703.23
2019-03-21T06:08:21.036Z,100704.44
2019-03-21T06:10:52.182Z,100697.92
2019-03-21T06:13:25.707Z,100699.16
2019-03-21T06:16:06.382Z,100704.45
2019-03-21T06:19:13.610Z,100701.70
2019-03-21T06:21:51.099Z,100705.53
2019-03-21T06:24:48.966Z,100704.97
2019-03-21T06:27:39.923Z,100711.75
2019-03-21T06:30:11.827Z,100706.12
2019-03-21T06:32:42.693Z,100707.73
2019-03-21T06:35:22.404Z,100714.24
2019-03-21T06:37:54.980Z,100707.58
2019-03-21T06:40:30.443Z,100709.54
2019-03-21T06:43:01.699Z,100729.18
2019-03-21T06:45:34.115Z,100718.58
2019-03-21T06:48:05.024Z,100713.22
2019-03-21T06:50:35.881Z,100710.29
2019-03-21T06:53:07.795Z,100705.91
2019-03-21T06:55:38.623Z,100704.80
2019-03-21T06:58:09.430Z,100710.39
2019-03-21T07:00:40.203Z,100699.22
2019-03-21T07:03:11.058Z,100693.19
2019-03-21T07:05:41.895Z,100675.91
2019-03-21T07:08:12.707Z,100669.56
2019-03-21T07:10:43.534Z,100668.68
2019-03-21T07:13:14.565Z,100667.30
2019-03-21T07:15:45.726Z,100661.14
2019-03-21T07:18:16.600Z,100658.72
2019-03-21T07:20:47.462Z,100653.16
2019-03-21T07:23:18.326Z,100661.73
2019-03-21T07:25:51.350Z,100662.88
2019-03-21T07:28:22.562Z,100666.12
2019-03-21T07:30:53.365Z,100657.85
2019-03-21T07:33:24.341Z,100666.45
2019-03-21T07:35:55.178Z,100662.83
2019-03-21T07:38:26.334Z,100664.91
2019-03-21T07:40:57.429Z,100668.03
2019-03-21T07:43:28.222Z,100666.92
2019-03-21T07:45:59.696Z,100668.34
2019-03-21T07:48:30.944Z,100666.33
2019-03-21T07:51:01.746Z,100672.27
2019-03-21T07:53:33.086Z,100669.53
2019-03-21T07:56:05.326Z,100675.15
2019-03-21T07:58:37.157Z,100682.73
2019-03-21T08:01:07.966Z,100687.05
2019-03-21T08:03:38.831Z,100683.51
2019-03-21T08:06:09.719Z,100680.98
2019-03-21T08:08:40.602Z,100687.17
2019-03-21T08:11:11.362Z,100684.56
2019-03-21T08:13:42.181Z,100692.20
2019-03-21T08:16:13.442Z,100691.02
2019-03-21T08:18:44.397Z,100693.04
2019-03-21T08:21:15.244Z,100696.48
2019-03-21T08:23:46.072Z,100691.72
2019-03-21T08:26:17.023Z,100695.60
2019-03-21T08:28:47.946Z,100706.36
2019-03-21T08:31:19.903Z,100693.06
2019-03-21T08:33:50.946Z,100700.00
2019-03-21T08:36:21.769Z,100701.49
2019-03-21T08:38:54.237Z,100700.03
2019-03-21T08:41:25.152Z,100694.55
2019-03-21T08:43:56.307Z,100691.62
2019-03-21T08:46:27.599Z,100698.23
2019-03-21T08:48:58.704Z,100691.30
2019-03-21T08:51:30.834Z,100686.52
2019-03-21T08:54:08.676Z,100694.84
2019-03-21T08:56:39.541Z,100699.26
2019-03-21T08:59:12.525Z,100697.34
2019-03-21T09:01:43.358Z,100695.76
2019-03-21T09:04:15.218Z,100704.52
2019-03-21T09:06:45.983Z,100693.31
2019-03-21T09:09:16.947Z,100695.98
2019-03-21T09:11:47.753Z,100703.75
2019-03-21T09:14:18.999Z,100701.78
2019-03-21T09:16:49.874Z,100700.94
2019-03-21T09:19:22.213Z,100708.00
2019-03-21T09:21:53.139Z,100706.48
2019-03-21T09:24:25.191Z,100708.48
2019-03-21T09:26:56.021Z,100717.59
2019-03-21T09:29:26.871Z,100710.72
2019-03-21T09:31:58.357Z,100710.63
2019-03-21T09:34:29.647Z,100711.09
2019-03-21T09:37:03.954Z,100716.11
2019-03-21T09:39:36.359Z,100713.15
2019-03-21T09:42:07.182Z,100716.39
2019-03-21T09:44:38.134Z,100704.94
2019-03-21T09:47:09.515Z,100698.22
2019-03-21T09:49:40.544Z,100697.98
2019-03-21T09:52:13.340Z,100695.27
2019-03-21T09:54:44.289Z,100705.44
2019-03-21T09:57:15.051Z,100702.02
2019-03-21T09:59:47.711Z,100698.14
2019-03-21T10:02:18.887Z,100706.26
2019-03-21T10:04:49.724Z,100702.20
2019-03-21T10:07:20.511Z,100699.00
2019-03-21T10:09:51.520Z,100691.52
2019-03-21T10:12:22.336Z,100698.97
2019-03-21T10:14:54.984Z,100695.89
2019-03-21T10:17:26.115Z,100694.88
2019-03-21T10:19:57.889Z,100689.85
2019-03-21T10:22:28.667Z,100695.11
2019-03-21T10:25:00.360Z,100689.50
2019-03-21T10:27:34.682Z,100683.17
2019-03-21T10:30:06.224Z,100694.79
2019-03-21T10:32:37.001Z,100687.45
2019-03-21T10:35:09.679Z,100679.67
2019-03-21T10:37:40.410Z,100682.67
2019-03-21T10:40:11.295Z,100686.59
2019-03-21T10:42:42.089Z,100679.41
2019-03-21T10:45:14.195Z,100691.33
2019-03-21T10:47:45.542Z,100685.67
2019-03-21T10:50:20.140Z,100691.69
2019-03-21T10:52:50.916Z,100694.80
2019-03-21T10:55:21.772Z,100678.20
2019-03-21T10:57:52.546Z,100669.92
2019-03-21T11:00:23.477Z,100660.88
2019-03-21T11:02:55.222Z,100659.65
2019-03-21T11:05:26.649Z,100662.63
2019-03-21T11:07:57.365Z,100660.01
2019-03-21T11:10:28.299Z,100660.75
2019-03-21T11:12:59.477Z,100655.80
2019-03-21T11:15:30.903Z,100653.50
2019-03-21T11:18:01.695Z,100652.79
2019-03-21T11:20:34.199Z,100642.86
2019-03-21T11:23:08.124Z,100652.82
2019-03-21T11:25:38.903Z,100647.75
2019-03-21T11:28:09.902Z,100641.05
2019-03-21T11:30:42.551Z,100642.97
2019-03-21T11:33:13.390Z,100641.02
2019-03-21T11:35:44.360Z,100634.73
2019-03-21T11:38:15.187Z,100626.42
2019-03-21T11:40:48.434Z,100616.21
2019-03-21T11:43:20.202Z,100612.02
2019-03-21T11:45:51.112Z,100612.63
2019-03-21T11:48:23.506Z,100607.58
2019-03-21T11:50:54.698Z,100610.80
2019-03-21T11:53:25.618Z,100605.55
2019-03-21T11:55:56.410Z,100610.88
2019-03-21T11:58:27.156Z,100598.09
2019-03-21T12:00:58.088Z,100596.70
2019-03-21T12:03:31.186Z,100590.97
2019-03-21T12:06:02.072Z,100592.11
2019-03-21T12:08:33.932Z,100591.19
2019-03-21T12:11:08.715Z,100581.80
2019-03-21T12:13:39.452Z,100580.33
2019-03-21T12:16:12.510Z,100577.89
2019-03-21T12:18:43.371Z,100582.61
2019-03-21T12:21:14.973Z,100579.59
2019-03-21T12:23:45.833Z,100580.06
2019-03-21T12:26:18.978Z,100583.06
2019-03-21T12:28:49.813Z,100576.91
2019-03-21T12:31:20.749Z,100569.09
2019-03-21T12:33:51.505Z,100571.30
2019-03-21T12:36:23.041Z,100573.77
2019-03-21T12:38:56.626Z,100580.77
2019-03-21T12:41:27.588Z,100574.73
2019-03-21T12:44:00.758Z,100563.23
2019-03-21T12:46:32.002Z,100559.09
2019-03-21T12:49:05.427Z,100566.99
2019-03-21T12:51:37.478Z,100563.72
2019-03-21T12:54:08.379Z,100548.16
2019-03-21T12:56:39.294Z,100548.57
2019-03-21T12:59:10.335Z,100546.27
2019-03-21T13:01:41.184Z,100540.61
2019-03-21T13:04:12.881Z,100548.67
2019-03-21T13:06:43.706Z,100543.29
2019-03-21T13:09:14.593Z,100535.44
2019-03-21T13:11:45.574Z,100534.29
2019-03-21T13:14:20.062Z,100533.92
2019-03-21T13:16:50.923Z,100539.67
2019-03-21T13:19:22.808Z,100530.80
2019-03-21T13:21:53.675Z,100526.46
2019-03-21T13:24:24.613Z,100520.26
2019-03-21T13:26:55.860Z,100521.42
2019-03-21T13:29:28.660Z,100524.98
2019-03-21T13:32:00.683Z,100525.69
2019-03-21T13:34:32.216Z,100518.17
2019-03-21T13:37:03.364Z,100524.22
2019-03-21T13:39:34.585Z,100517.33
2019-03-21T13:42:06.860Z,100513.81
2019-03-21T13:44:39.683Z,100508.83
2019-03-21T13:47:10.906Z,100504.78
2019-03-21T13:49:43.446Z,100502.09
2019-03-21T13:52:14.775Z,100503.34
2019-03-21T13:54:45.882Z,100497.42
2019-03-21T13:57:16.772Z,100493.80
2019-03-21T13:59:47.619Z,100493.81
2019-03-21T14:02:18.524Z,100491.80
2019-03-21T14:04:55.600Z,100479.05
2019-03-21T14:07:27.563Z,100478.38
2019-03-21T14:09:59.835Z,100473.87
2019-03-21T14:12:30.667Z,100471.50
2019-03-21T14:15:04.108Z,100474.19
2019-03-21T14:17:35.119Z,100465.47
2019-03-21T14:20:06.449Z,100464.51
2019-03-21T14:22:40.662Z,100470.75
2019-03-21T14:25:13.988Z,100467.84
2019-03-21T14:27:44.902Z,100462.27
2019-03-21T14:30:20.161Z,100461.69
2019-03-21T14:32:53.144Z,100449.85
2019-03-21T14:35:26.519Z,100452.32
2019-03-21T14:37:57.502Z,100448.62
2019-03-21T14:40:28.364Z,100449.25
2019-03-21T14:42:59.358Z,100453.83
2019-03-21T14:45:30.210Z,100444.43
2019-03-21T14:48:04.541Z,100446.66
2019-03-21T14:50:35.883Z,100448.55
2019-03-21T14:53:06.740Z,100440.67
2019-03-21T14:55:47.003Z,100439.70
2019-03-21T14:58:14.639Z,100444.43
2019-03-21T15:00:45.568Z,100444.37
2019-03-21T15:03:18.036Z,100441.78
2019-03-21T15:05:48.858Z,100435.49
2019-03-21T15:08:20.101Z,100438.16
2019-03-21T15:10:51.127Z,100446.17
2019-03-21T15:13:22.059Z,100440.17
2019-03-21T15:15:54.477Z,100441.42
2019-03-21T15:18:26.217Z,100450.37
2019-03-21T15:20:57.082Z,100447.66
2019-03-21T15:23:39.920Z,100451.67
2019-03-21T15:26:00.744Z,100448.69
2019-03-21T15:28:31.666Z,100444.36
2019-03-21T15:31:02.751Z,100450.73
2019-03-21T15:33:34.652Z,100452.53
2019-03-21T15:36:05.408Z,100458.45
2019-03-21T15:38:37.414Z,100444.65
2019-03-21T15:41:10.412Z,100454.12
2019-03-21T15:43:41.411Z,100461.53
2019-03-21T15:46:12.392Z,100449.93
2019-03-21T15:48:44.328Z,100451.14
2019-03-21T15:51:15.916Z,100450.71
2019-03-21T15:53:53.482Z,100458.70
2019-03-21T15:56:19.598Z,100454.09
2019-03-21T15:58:50.419Z,100451.97
2019-03-21T16:01:22.112Z,100455.14
2019-03-21T16:03:52.966Z,100449.10
2019-03-21T16:06:23.910Z,100452.31
2019-03-21T16:08:54.950Z,100449.45
2019-03-21T16:11:25.788Z,100453.59
2019-03-21T16:13:56.783Z,100448.72
2019-03-21T16:16:28.439Z,100444.58
2019-03-21T16:18:59.297Z,100450.33
2019-03-21T16:21:30.255Z,100447.19
2019-03-21T16:24:05.480Z,100446.81
2019-03-21T16:26:36.528Z,100455.55
2019-03-21T16:29:06.536Z,100452.02
2019-03-21T16:31:40.434Z,100450.64
2019-03-21T16:34:11.309Z,100447.91
2019-03-21T16:36:42.235Z,100446.11
2019-03-21T16:39:13.258Z,100443.31
2019-03-21T16:41:44.074Z,100443.89
2019-03-21T16:44:14.930Z,100443.13
2019-03-21T16:46:45.747Z,100444.22
2019-03-21T16:49:16.599Z,100449.05
2019-03-21T16:51:47.718Z,100447.05
2019-03-21T16:54:18.702Z,100447.48
2019-03-21T16:56:49.658Z,100442.28
2019-03-21T16:59:20.553Z,100445.48
2019-03-21T17:01:51.327Z,100443.60
2019-03-21T17:04:22.267Z,100445.62
2019-03-21T17:06:53.414Z,100443.08
2019-03-21T17:09:24.406Z,100453.80
2019-03-21T17:11:55.234Z,100450.77
2019-03-21T17:14:26.497Z,100454.83
2019-03-21T17:16:57.337Z,100451.78
2019-03-21T17:19:28.683Z,100457.45
2019-03-21T17:21:59.523Z,100458.78
2019-03-21T17:24:30.391Z,100461.09
2019-03-21T17:27:02.410Z,100468.44
2019-03-21T17:29:33.429Z,100462.18
2019-03-21T17:32:04.250Z,100465.14
2019-03-21T17:34:35.054Z,100462.36
2019-03-21T17:37:05.971Z,100471.69
2019-03-21T17:39:37.095Z,100478.11
2019-03-21T17:42:07.838Z,100470.78
2019-03-21T17:44:38.692Z,100473.91
2019-03-21T17:47:09.457Z,100473.38
2019-03-21T17:49:40.409Z,100480.98
2019-03-21T17:52:11.589Z,100481.98
2019-03-21T17:54:42.366Z,100481.98
2019-03-21T17:57:13.202Z,100481.51
2019-03-21T17:59:44.269Z,100492.24
2019-03-21T18:02:15.043Z,100493.58
2019-03-21T18:04:45.926Z,100494.13
2019-03-21T18:07:16.787Z,100490.17
2019-03-21T18:09:48.577Z,100496.58
2019-03-21T18:12:20.498Z,100496.08
2019-03-21T18:14:51.298Z,100496.45
2019-03-21T18:17:22.034Z,100493.13
2019-03-21T18:19:52.860Z,100498.47
2019-03-21T18:22:24.696Z,100506.09
2019-03-21T18:24:55.626Z,100505.08
2019-03-21T18:27:26.401Z,100503.22
2019-03-21T18:29:57.252Z,100508.27
2019-03-21T18:32:28.257Z,100507.47
2019-03-21T18:34:59.012Z,100510.41
2019-03-21T18:37:29.766Z,100500.73
2019-03-21T18:40:00.839Z,100505.51
2019-03-21T18:42:31.681Z,100505.80
2019-03-21T18:45:02.549Z,100503.92
2019-03-21T18:47:33.283Z,100510.94
2019-03-21T18:50:04.338Z,100514.18
2019-03-21T18:52:35.974Z,100518.72
2019-03-21T18:55:08.353Z,100508.55
2019-03-21T18:57:39.210Z,100514.97
2019-03-21T19:00:10.763Z,100514.95
2019-03-21T19:02:41.495Z,100511.75
2019-03-21T19:05:12.354Z,100510.44
2019-03-21T19:07:43.209Z,100504.74
2019-03-21T19:10:14.377Z,100510.30
2019-03-21T19:12:45.309Z,100514.54
2019-03-21T19:15:16.424Z,100512.95
2019-03-21T19:17:47.234Z,100515.61
2019-03-21T19:20:18.402Z,100514.48
2019-03-21T19:22:49.270Z,100513.47
2019-03-21T19:25:22.526Z,100515.47
2019-03-21T19:27:53.301Z,100519.45
2019-03-21T19:30:24.225Z,100518.57
2019-03-21T19:32:55.063Z,100517.98
2019-03-21T19:35:25.980Z,100516.62
2019-03-21T19:37:56.727Z,100523.78
2019-03-21T19:40:27.565Z,100524.44
2019-03-21T19:42:58.346Z,100525.70
2019-03-21T19:45:29.123Z,100529.46
2019-03-21T19:47:59.859Z,100529.56
2019-03-21T19:50:30.686Z,100528.73
2019-03-21T19:53:01.889Z,100528.52
2019-03-21T19:55:32.691Z,100523.23
2019-03-21T19:58:03.523Z,100519.64
2019-03-21T20:00:34.382Z,100521.48
2019-03-21T20:03:05.277Z,100516.98
2019-03-21T20:05:36.059Z,100519.64
2019-03-21T20:08:06.804Z,100518.09
2019-03-21T20:10:37.809Z,100524.79
2019-03-21T20:13:08.595Z,100525.14
2019-03-21T20:15:39.592Z,100530.77
2019-03-21T20:18:12.390Z,100528.47
2019-03-21T20:20:43.407Z,100528.87
2019-03-21T20:23:14.216Z,100531.56
2019-03-21T20:25:45.065Z,100525.48
2019-03-21T20:28:16.145Z,100523.59
2019-03-21T20:30:47.006Z,100524.78
2019-03-21T20:33:17.783Z,100526.31
2019-03-21T20:35:48.630Z,100523.72
2019-03-21T20:38:19.379Z,100528.56
2019-03-21T20:40:50.335Z,100524.58
2019-03-21T20:43:21.192Z,100524.08
2019-03-21T20:45:54.998Z,100524.17
2019-03-21T20:48:30.676Z,100522.61
2019-03-21T20:51:01.499Z,100527.44
2019-03-21T20:53:32.409Z,100528.88
2019-03-21T20:56:03.247Z,100532.64
2019-03-21T20:58:34.495Z,100538.77
2019-03-21T21:01:18.925Z,100536.63
2019-03-21T21:03:54.183Z,100536.59
2019-03-21T21:06:24.995Z,100531.83
2019-03-21T21:08:55.763Z,100534.48
2019-03-21T21:11:26.804Z,100525.37
2019-03-21T21:13:57.634Z,100528.76
2019-03-21T21:16:28.667Z,100529.92
2019-03-21T21:18:59.409Z,100528.39
2019-03-21T21:21:30.386Z,100532.49
2019-03-21T21:24:01.142Z,100534.12
2019-03-21T21:26:32.068Z,100521.71
2019-03-21T21:29:03.244Z,100521.66
2019-03-21T21:31:34.230Z,100526.67
2019-03-21T21:34:12.184Z,100525.65
2019-03-21T21:36:46.937Z,100521.59
2019-03-21T21:42:27.546Z,100522.59
2019-03-21T21:44:59.733Z,100523.49
2019-03-21T21:47:30.557Z,100527.31
2019-03-21T21:50:02.293Z,100529.63
2019-03-21T21:52:41.914Z,100520.26
2019-03-21T21:55:07.278Z,100521.59
2019-03-21T21:57:39.240Z,100523.50
2019-03-21T22:00:15.016Z,100526.70
2019-03-21T22:02:46.132Z,100519.23
2019-03-21T22:05:17.105Z,100523.52
2019-03-21T22:07:47.973Z,100530.77
2019-03-21T22:10:18.848Z,100534.17
2019-03-21T22:12:52.250Z,100534.67
2019-03-21T22:15:23.175Z,100531.44
2019-03-21T22:17:53.986Z,100528.93
2019-03-21T22:20:24.759Z,100535.18
2019-03-21T22:22:56.739Z,100535.09
2019-03-21T22:25:27.535Z,100537.52
2019-03-21T22:27:58.575Z,100540.38
2019-03-21T22:30:29.355Z,100543.11
2019-03-21T22:33:00.237Z,100535.28
2019-03-21T22:35:31.048Z,100539.75
2019-03-21T22:38:01.943Z,100537.47
2019-03-21T22:40:32.716Z,100537.70
2019-03-21T22:43:03.610Z,100539.30
2019-03-21T22:45:34.381Z,100543.09
2019-03-21T22:48:05.279Z,100539.03
2019-03-21T22:50:36.100Z,100542.11
2019-03-21T22:53:06.979Z,100535.03
2019-03-21T22:55:37.885Z,100534.79
2019-03-21T22:58:08.813Z,100541.66
2019-03-21T23:00:44.334Z,100549.28
2019-03-21T23:03:15.224Z,100545.70
2019-03-21T23:05:46.076Z,100538.94
2019-03-21T23:08:16.863Z,100542.23
2019-03-21T23:10:47.676Z,100537.12
2019-03-21T23:13:18.578Z,100539.45
2019-03-21T23:15:49.363Z,100541.16
2019-03-21T23:18:20.189Z,100538.58
2019-03-21T23:20:50.945Z,100535.03
2019-03-21T23:23:21.790Z,100531.76
2019-03-21T23:25:52.665Z,100532.08
2019-03-21T23:28:23.839Z,100523.11
2019-03-21T23:30:54.659Z,100525.36
2019-03-21T23:33:25.620Z,100530.07
2019-03-21T23:35:56.456Z,100529.05
2019-03-21T23:38:27.352Z,100532.25
2019-03-21T23:40:58.096Z,100529.90
2019-03-21T23:43:30.199Z,100533.05
2019-03-21T23:46:00.911Z,100540.38
2019-03-21T23:48:31.694Z,100538.89
2019-03-21T23:51:02.512Z,100534.84
2019-03-21T23:53:33.317Z,100537.08
2019-03-21T23:56:05.490Z,100536.39
2019-03-21T23:58:36.301Z,100536.23
